sensor_id;sensor_type;location;lat;lon;timestamp;P1;durP1;ratioP1;P2;durP2;ratioP2
11614;SDS011;5863;52.832;4.758;2023-09-12T00:00:09;31.83;;;25.35;;
11614;SDS011;5863;52.832;4.758;2023-09-12T00:02:36;37.13;;;25.88;;
11614;SDS011;5863;52.832;4.758;2023-09-12T00:05:03;30.50;;;24.80;;
11614;SDS011;5863;52.832;4.758;2023-09-12T00:07:31;32.30;;;24.67;;
11614;SDS011;5863;52.832;4.758;2023-09-12T00:09:58;34.25;;;25.88;;
11614;SDS011;5863;52.832;4.758;2023-09-12T00:12:24;36.03;;;26.48;;
11614;SDS011;5863;52.832;4.758;2023-09-12T00:14:51;33.17;;;26.10;;
11614;SDS011;5863;52.832;4.758;2023-09-12T00:17:19;31.70;;;23.98;;
11614;SDS011;5863;52.832;4.758;2023-09-12T00:19:46;31.63;;;25.77;;
11614;SDS011;5863;52.832;4.758;2023-09-12T00:22:12;32.67;;;25.83;;
11614;SDS011;5863;52.832;4.758;2023-09-12T00:24:39;33.67;;;26.55;;
11614;SDS011;5863;52.832;4.758;2023-09-12T00:27:06;35.30;;;26.50;;
11614;SDS011;5863;52.832;4.758;2023-09-12T00:29:33;31.38;;;26.20;;
11614;SDS011;5863;52.832;4.758;2023-09-12T00:31:59;33.15;;;25.10;;
11614;SDS011;5863;52.832;4.758;2023-09-12T00:34:27;34.45;;;25.42;;
11614;SDS011;5863;52.832;4.758;2023-09-12T00:36:54;34.15;;;26.75;;
11614;SDS011;5863;52.832;4.758;2023-09-12T00:39:21;30.60;;;25.17;;
11614;SDS011;5863;52.832;4.758;2023-09-12T00:41:47;29.33;;;23.60;;
11614;SDS011;5863;52.832;4.758;2023-09-12T00:44:16;29.60;;;24.45;;
11614;SDS011;5863;52.832;4.758;2023-09-12T00:46:43;30.77;;;24.05;;
11614;SDS011;5863;52.832;4.758;2023-09-12T00:49:12;30.08;;;23.92;;
11614;SDS011;5863;52.832;4.758;2023-09-12T00:51:41;29.73;;;22.35;;
11614;SDS011;5863;52.832;4.758;2023-09-12T00:54:10;28.15;;;22.27;;
11614;SDS011;5863;52.832;4.758;2023-09-12T00:56:36;26.05;;;22.08;;
11614;SDS011;5863;52.832;4.758;2023-09-12T00:59:04;26.63;;;21.95;;
11614;SDS011;5863;52.832;4.758;2023-09-12T01:01:31;27.90;;;22.70;;
11614;SDS011;5863;52.832;4.758;2023-09-12T01:03:59;26.95;;;23.00;;
11614;SDS011;5863;52.832;4.758;2023-09-12T01:06:26;26.73;;;21.70;;
11614;SDS011;5863;52.832;4.758;2023-09-12T01:08:58;26.05;;;22.27;;
11614;SDS011;5863;52.832;4.758;2023-09-12T01:11:24;28.17;;;22.35;;
11614;SDS011;5863;52.832;4.758;2023-09-12T01:13:52;29.42;;;23.10;;
11614;SDS011;5863;52.832;4.758;2023-09-12T01:16:19;28.70;;;22.75;;
11614;SDS011;5863;52.832;4.758;2023-09-12T01:18:45;25.05;;;21.50;;
11614;SDS011;5863;52.832;4.758;2023-09-12T01:21:24;26.27;;;22.00;;
11614;SDS011;5863;52.832;4.758;2023-09-12T01:24:17;27.55;;;23.02;;
11614;SDS011;5863;52.832;4.758;2023-09-12T01:26:59;28.70;;;23.25;;
11614;SDS011;5863;52.832;4.758;2023-09-12T01:29:47;27.98;;;23.15;;
11614;SDS011;5863;52.832;4.758;2023-09-12T01:32:16;29.88;;;23.35;;
11614;SDS011;5863;52.832;4.758;2023-09-12T01:34:45;35.17;;;25.08;;
11614;SDS011;5863;52.832;4.758;2023-09-12T01:37:11;32.97;;;24.70;;
11614;SDS011;5863;52.832;4.758;2023-09-12T01:39:38;33.97;;;26.13;;
11614;SDS011;5863;52.832;4.758;2023-09-12T01:42:05;34.20;;;24.70;;
11614;SDS011;5863;52.832;4.758;2023-09-12T01:44:36;32.65;;;25.15;;
11614;SDS011;5863;52.832;4.758;2023-09-12T01:47:04;35.70;;;25.70;;
11614;SDS011;5863;52.832;4.758;2023-09-12T01:49:32;35.95;;;25.58;;
11614;SDS011;5863;52.832;4.758;2023-09-12T01:51:59;34.42;;;25.85;;
11614;SDS011;5863;52.832;4.758;2023-09-12T01:54:27;35.58;;;25.75;;
11614;SDS011;5863;52.832;4.758;2023-09-12T01:56:54;34.50;;;25.40;;
11614;SDS011;5863;52.832;4.758;2023-09-12T01:59:22;33.47;;;25.42;;
11614;SDS011;5863;52.832;4.758;2023-09-12T02:01:50;32.85;;;25.77;;
11614;SDS011;5863;52.832;4.758;2023-09-12T02:04:17;32.72;;;25.23;;
11614;SDS011;5863;52.832;4.758;2023-09-12T02:06:44;34.92;;;24.55;;
11614;SDS011;5863;52.832;4.758;2023-09-12T02:09:11;32.67;;;24.70;;
11614;SDS011;5863;52.832;4.758;2023-09-12T02:11:37;34.08;;;25.20;;
11614;SDS011;5863;52.832;4.758;2023-09-12T02:14:04;34.33;;;26.17;;
11614;SDS011;5863;52.832;4.758;2023-09-12T02:16:31;32.97;;;25.23;;
11614;SDS011;5863;52.832;4.758;2023-09-12T02:18:59;34.63;;;26.02;;
11614;SDS011;5863;52.832;4.758;2023-09-12T02:21:26;33.67;;;25.75;;
11614;SDS011;5863;52.832;4.758;2023-09-12T02:23:53;35.47;;;25.02;;
11614;SDS011;5863;52.832;4.758;2023-09-12T02:26:19;31.17;;;24.52;;
11614;SDS011;5863;52.832;4.758;2023-09-12T02:28:46;36.42;;;24.75;;
11614;SDS011;5863;52.832;4.758;2023-09-12T02:31:13;31.40;;;24.75;;
11614;SDS011;5863;52.832;4.758;2023-09-12T02:33:39;34.80;;;26.10;;
11614;SDS011;5863;52.832;4.758;2023-09-12T02:36:07;32.72;;;24.63;;
11614;SDS011;5863;52.832;4.758;2023-09-12T02:38:34;33.75;;;25.15;;
11614;SDS011;5863;52.832;4.758;2023-09-12T02:41:01;35.83;;;25.85;;
11614;SDS011;5863;52.832;4.758;2023-09-12T02:43:28;31.65;;;25.00;;
11614;SDS011;5863;52.832;4.758;2023-09-12T02:45:55;33.33;;;26.23;;
11614;SDS011;5863;52.832;4.758;2023-09-12T02:48:22;32.60;;;26.20;;
11614;SDS011;5863;52.832;4.758;2023-09-12T02:50:49;38.00;;;27.20;;
11614;SDS011;5863;52.832;4.758;2023-09-12T02:53:16;35.97;;;25.15;;
11614;SDS011;5863;52.832;4.758;2023-09-12T02:55:43;34.35;;;25.60;;
11614;SDS011;5863;52.832;4.758;2023-09-12T02:58:10;34.25;;;24.95;;
11614;SDS011;5863;52.832;4.758;2023-09-12T03:00:37;32.88;;;24.38;;
11614;SDS011;5863;52.832;4.758;2023-09-12T03:03:05;32.55;;;24.83;;
11614;SDS011;5863;52.832;4.758;2023-09-12T03:05:34;31.80;;;25.13;;
11614;SDS011;5863;52.832;4.758;2023-09-12T03:08:00;36.25;;;26.08;;
11614;SDS011;5863;52.832;4.758;2023-09-12T03:10:29;36.67;;;24.73;;
11614;SDS011;5863;52.832;4.758;2023-09-12T03:12:55;34.05;;;24.63;;
11614;SDS011;5863;52.832;4.758;2023-09-12T03:15:22;33.92;;;23.02;;
11614;SDS011;5863;52.832;4.758;2023-09-12T03:17:49;31.08;;;22.83;;
11614;SDS011;5863;52.832;4.758;2023-09-12T03:20:15;31.00;;;22.65;;
11614;SDS011;5863;52.832;4.758;2023-09-12T03:22:42;29.10;;;23.75;;
11614;SDS011;5863;52.832;4.758;2023-09-12T03:25:10;28.33;;;22.50;;
11614;SDS011;5863;52.832;4.758;2023-09-12T03:27:38;29.60;;;22.88;;
11614;SDS011;5863;52.832;4.758;2023-09-12T03:30:05;29.55;;;23.25;;
11614;SDS011;5863;52.832;4.758;2023-09-12T03:32:33;32.53;;;23.88;;
11614;SDS011;5863;52.832;4.758;2023-09-12T03:34:59;30.30;;;21.73;;
11614;SDS011;5863;52.832;4.758;2023-09-12T03:37:26;29.20;;;22.65;;
11614;SDS011;5863;52.832;4.758;2023-09-12T03:39:53;27.15;;;20.50;;
11614;SDS011;5863;52.832;4.758;2023-09-12T03:42:20;28.23;;;21.25;;
11614;SDS011;5863;52.832;4.758;2023-09-12T03:44:48;25.10;;;21.20;;
11614;SDS011;5863;52.832;4.758;2023-09-12T03:47:15;27.27;;;20.90;;
11614;SDS011;5863;52.832;4.758;2023-09-12T03:49:41;30.90;;;21.42;;
11614;SDS011;5863;52.832;4.758;2023-09-12T03:52:08;28.52;;;20.80;;
11614;SDS011;5863;52.832;4.758;2023-09-12T03:54:35;28.83;;;21.17;;
11614;SDS011;5863;52.832;4.758;2023-09-12T03:57:01;24.80;;;19.77;;
11614;SDS011;5863;52.832;4.758;2023-09-12T03:59:28;25.85;;;19.63;;
11614;SDS011;5863;52.832;4.758;2023-09-12T04:01:56;26.27;;;20.55;;
11614;SDS011;5863;52.832;4.758;2023-09-12T04:04:23;29.75;;;20.95;;
11614;SDS011;5863;52.832;4.758;2023-09-12T04:06:49;27.17;;;20.70;;
11614;SDS011;5863;52.832;4.758;2023-09-12T04:09:16;28.17;;;21.00;;
11614;SDS011;5863;52.832;4.758;2023-09-12T04:11:43;24.27;;;20.05;;
11614;SDS011;5863;52.832;4.758;2023-09-12T04:14:09;31.70;;;20.67;;
11614;SDS011;5863;52.832;4.758;2023-09-12T04:16:36;28.30;;;19.85;;
11614;SDS011;5863;52.832;4.758;2023-09-12T04:19:04;28.95;;;19.98;;
11614;SDS011;5863;52.832;4.758;2023-09-12T04:21:31;24.90;;;18.85;;
11614;SDS011;5863;52.832;4.758;2023-09-12T04:23:58;23.33;;;19.30;;
11614;SDS011;5863;52.832;4.758;2023-09-12T04:26:25;26.63;;;20.33;;
11614;SDS011;5863;52.832;4.758;2023-09-12T04:28:51;25.77;;;19.83;;
11614;SDS011;5863;52.832;4.758;2023-09-12T04:31:18;25.98;;;20.30;;
11614;SDS011;5863;52.832;4.758;2023-09-12T04:33:45;27.35;;;20.13;;
11614;SDS011;5863;52.832;4.758;2023-09-12T04:36:13;24.27;;;19.17;;
11614;SDS011;5863;52.832;4.758;2023-09-12T04:38:39;23.58;;;18.55;;
11614;SDS011;5863;52.832;4.758;2023-09-12T04:41:06;27.25;;;19.27;;
11614;SDS011;5863;52.832;4.758;2023-09-12T04:43:33;21.67;;;17.55;;
11614;SDS011;5863;52.832;4.758;2023-09-12T04:46:00;24.77;;;18.13;;
11614;SDS011;5863;52.832;4.758;2023-09-12T04:48:27;24.13;;;18.13;;
11614;SDS011;5863;52.832;4.758;2023-09-12T04:50:53;21.40;;;16.27;;
11614;SDS011;5863;52.832;4.758;2023-09-12T04:53:23;21.33;;;15.52;;
11614;SDS011;5863;52.832;4.758;2023-09-12T04:55:51;21.30;;;16.23;;
11614;SDS011;5863;52.832;4.758;2023-09-12T04:58:18;19.88;;;16.70;;
11614;SDS011;5863;52.832;4.758;2023-09-12T05:00:45;23.25;;;17.60;;
11614;SDS011;5863;52.832;4.758;2023-09-12T05:03:11;27.23;;;18.67;;
11614;SDS011;5863;52.832;4.758;2023-09-12T05:05:38;24.30;;;17.88;;
11614;SDS011;5863;52.832;4.758;2023-09-12T05:08:05;25.67;;;18.92;;
11614;SDS011;5863;52.832;4.758;2023-09-12T05:10:33;21.70;;;18.60;;
11614;SDS011;5863;52.832;4.758;2023-09-12T05:12:59;26.35;;;19.20;;
11614;SDS011;5863;52.832;4.758;2023-09-12T05:15:26;21.90;;;18.55;;
11614;SDS011;5863;52.832;4.758;2023-09-12T05:17:53;25.38;;;19.55;;
11614;SDS011;5863;52.832;4.758;2023-09-12T05:20:19;23.73;;;18.40;;
11614;SDS011;5863;52.832;4.758;2023-09-12T05:22:46;23.90;;;18.83;;
11614;SDS011;5863;52.832;4.758;2023-09-12T05:25:13;22.13;;;19.27;;
11614;SDS011;5863;52.832;4.758;2023-09-12T05:27:41;21.95;;;18.25;;
11614;SDS011;5863;52.832;4.758;2023-09-12T05:30:08;24.27;;;18.73;;
11614;SDS011;5863;52.832;4.758;2023-09-12T05:32:35;23.05;;;17.52;;
11614;SDS011;5863;52.832;4.758;2023-09-12T05:35:02;23.27;;;18.45;;
11614;SDS011;5863;52.832;4.758;2023-09-12T05:37:29;24.45;;;18.92;;
11614;SDS011;5863;52.832;4.758;2023-09-12T05:39:56;28.80;;;19.48;;
11614;SDS011;5863;52.832;4.758;2023-09-12T05:42:23;25.63;;;19.63;;
11614;SDS011;5863;52.832;4.758;2023-09-12T05:44:51;30.58;;;21.00;;
11614;SDS011;5863;52.832;4.758;2023-09-12T05:47:18;25.15;;;19.80;;
11614;SDS011;5863;52.832;4.758;2023-09-12T05:49:45;24.63;;;19.45;;
11614;SDS011;5863;52.832;4.758;2023-09-12T05:52:12;23.70;;;18.33;;
11614;SDS011;5863;52.832;4.758;2023-09-12T05:54:39;22.35;;;17.83;;
11614;SDS011;5863;52.832;4.758;2023-09-12T05:57:06;22.55;;;18.10;;
11614;SDS011;5863;52.832;4.758;2023-09-12T05:59:35;21.67;;;18.15;;
11614;SDS011;5863;52.832;4.758;2023-09-12T06:02:04;22.05;;;17.73;;
11614;SDS011;5863;52.832;4.758;2023-09-12T06:04:33;21.50;;;18.02;;
11614;SDS011;5863;52.832;4.758;2023-09-12T06:07:00;25.02;;;18.75;;
11614;SDS011;5863;52.832;4.758;2023-09-12T06:09:27;23.10;;;17.52;;
11614;SDS011;5863;52.832;4.758;2023-09-12T06:11:54;22.75;;;17.33;;
11614;SDS011;5863;52.832;4.758;2023-09-12T06:14:21;21.50;;;16.63;;
11614;SDS011;5863;52.832;4.758;2023-09-12T06:16:48;22.90;;;17.90;;
11614;SDS011;5863;52.832;4.758;2023-09-12T06:19:16;25.58;;;18.25;;
11614;SDS011;5863;52.832;4.758;2023-09-12T06:21:44;29.42;;;18.80;;
11614;SDS011;5863;52.832;4.758;2023-09-12T06:24:11;26.40;;;18.63;;
11614;SDS011;5863;52.832;4.758;2023-09-12T06:26:39;25.48;;;18.92;;
11614;SDS011;5863;52.832;4.758;2023-09-12T06:29:06;25.75;;;18.17;;
11614;SDS011;5863;52.832;4.758;2023-09-12T06:31:33;23.88;;;17.83;;
11614;SDS011;5863;52.832;4.758;2023-09-12T06:34:00;21.70;;;16.50;;
11614;SDS011;5863;52.832;4.758;2023-09-12T06:36:29;22.35;;;15.90;;
11614;SDS011;5863;52.832;4.758;2023-09-12T06:38:55;18.10;;;13.95;;
11614;SDS011;5863;52.832;4.758;2023-09-12T06:41:22;20.85;;;16.02;;
11614;SDS011;5863;52.832;4.758;2023-09-12T06:43:49;23.83;;;18.27;;
11614;SDS011;5863;52.832;4.758;2023-09-12T06:46:16;24.67;;;18.63;;
11614;SDS011;5863;52.832;4.758;2023-09-12T06:48:42;25.38;;;18.77;;
11614;SDS011;5863;52.832;4.758;2023-09-12T06:51:09;25.35;;;19.33;;
11614;SDS011;5863;52.832;4.758;2023-09-12T06:53:37;22.33;;;18.67;;
11614;SDS011;5863;52.832;4.758;2023-09-12T06:56:04;26.08;;;18.10;;
11614;SDS011;5863;52.832;4.758;2023-09-12T06:58:31;25.80;;;18.08;;
11614;SDS011;5863;52.832;4.758;2023-09-12T07:01:01;22.05;;;18.05;;
11614;SDS011;5863;52.832;4.758;2023-09-12T07:03:29;21.95;;;17.83;;
11614;SDS011;5863;52.832;4.758;2023-09-12T07:05:55;23.45;;;17.05;;
11614;SDS011;5863;52.832;4.758;2023-09-12T07:08:22;24.00;;;18.10;;
11614;SDS011;5863;52.832;4.758;2023-09-12T07:10:50;21.23;;;17.90;;
11614;SDS011;5863;52.832;4.758;2023-09-12T07:13:19;24.13;;;18.73;;
11614;SDS011;5863;52.832;4.758;2023-09-12T07:15:46;24.35;;;17.23;;
11614;SDS011;5863;52.832;4.758;2023-09-12T07:18:13;25.33;;;16.92;;
11614;SDS011;5863;52.832;4.758;2023-09-12T07:20:41;23.10;;;17.98;;
11614;SDS011;5863;52.832;4.758;2023-09-12T07:23:07;26.15;;;18.90;;
11614;SDS011;5863;52.832;4.758;2023-09-12T07:25:36;23.52;;;18.00;;
11614;SDS011;5863;52.832;4.758;2023-09-12T07:28:06;25.67;;;17.42;;
11614;SDS011;5863;52.832;4.758;2023-09-12T07:30:33;23.20;;;18.23;;
11614;SDS011;5863;52.832;4.758;2023-09-12T07:32:59;25.58;;;17.60;;
11614;SDS011;5863;52.832;4.758;2023-09-12T07:35:26;22.23;;;16.65;;
11614;SDS011;5863;52.832;4.758;2023-09-12T07:37:53;21.13;;;16.15;;
11614;SDS011;5863;52.832;4.758;2023-09-12T07:40:19;20.73;;;14.60;;
11614;SDS011;5863;52.832;4.758;2023-09-12T07:42:46;19.98;;;13.70;;
11614;SDS011;5863;52.832;4.758;2023-09-12T07:45:14;18.25;;;12.18;;
11614;SDS011;5863;52.832;4.758;2023-09-12T07:47:41;16.60;;;12.38;;
11614;SDS011;5863;52.832;4.758;2023-09-12T07:50:08;13.98;;;10.27;;
11614;SDS011;5863;52.832;4.758;2023-09-12T07:52:35;16.63;;;10.60;;
11614;SDS011;5863;52.832;4.758;2023-09-12T07:55:01;15.15;;;9.57;;
11614;SDS011;5863;52.832;4.758;2023-09-12T07:57:29;14.65;;;8.50;;
11614;SDS011;5863;52.832;4.758;2023-09-12T07:59:56;14.48;;;8.60;;
11614;SDS011;5863;52.832;4.758;2023-09-12T08:02:24;14.40;;;8.80;;
11614;SDS011;5863;52.832;4.758;2023-09-12T08:04:51;12.43;;;8.18;;
11614;SDS011;5863;52.832;4.758;2023-09-12T08:07:18;14.45;;;8.38;;
11614;SDS011;5863;52.832;4.758;2023-09-12T08:09:49;10.90;;;8.00;;
11614;SDS011;5863;52.832;4.758;2023-09-12T08:12:17;11.90;;;7.80;;
11614;SDS011;5863;52.832;4.758;2023-09-12T08:14:43;14.20;;;8.20;;
11614;SDS011;5863;52.832;4.758;2023-09-12T08:17:10;10.13;;;7.53;;
11614;SDS011;5863;52.832;4.758;2023-09-12T08:19:38;13.32;;;7.78;;
11614;SDS011;5863;52.832;4.758;2023-09-12T08:22:06;11.68;;;8.07;;
11614;SDS011;5863;52.832;4.758;2023-09-12T08:24:33;10.50;;;7.22;;
11614;SDS011;5863;52.832;4.758;2023-09-12T08:27:00;9.52;;;7.07;;
11614;SDS011;5863;52.832;4.758;2023-09-12T08:29:27;10.05;;;7.15;;
11614;SDS011;5863;52.832;4.758;2023-09-12T08:31:54;9.88;;;6.53;;
11614;SDS011;5863;52.832;4.758;2023-09-12T08:34:21;10.88;;;6.85;;
11614;SDS011;5863;52.832;4.758;2023-09-12T08:36:49;7.90;;;6.25;;
11614;SDS011;5863;52.832;4.758;2023-09-12T08:39:17;7.32;;;6.10;;
11614;SDS011;5863;52.832;4.758;2023-09-12T08:41:49;8.52;;;6.20;;
11614;SDS011;5863;52.832;4.758;2023-09-12T08:44:15;8.68;;;5.68;;
11614;SDS011;5863;52.832;4.758;2023-09-12T08:46:42;9.18;;;6.28;;
11614;SDS011;5863;52.832;4.758;2023-09-12T08:49:10;7.78;;;6.93;;
11614;SDS011;5863;52.832;4.758;2023-09-12T08:51:37;10.98;;;6.63;;
11614;SDS011;5863;52.832;4.758;2023-09-12T08:54:06;10.85;;;6.43;;
11614;SDS011;5863;52.832;4.758;2023-09-12T08:56:34;7.93;;;5.93;;
11614;SDS011;5863;52.832;4.758;2023-09-12T08:59:03;12.07;;;6.32;;
11614;SDS011;5863;52.832;4.758;2023-09-12T09:01:31;9.18;;;6.60;;
11614;SDS011;5863;52.832;4.758;2023-09-12T09:04:00;10.38;;;6.50;;
11614;SDS011;5863;52.832;4.758;2023-09-12T09:06:28;10.32;;;7.00;;
11614;SDS011;5863;52.832;4.758;2023-09-12T09:08:57;12.65;;;7.10;;
11614;SDS011;5863;52.832;4.758;2023-09-12T09:11:26;12.40;;;6.93;;
11614;SDS011;5863;52.832;4.758;2023-09-12T09:13:53;12.75;;;8.15;;
11614;SDS011;5863;52.832;4.758;2023-09-12T09:16:21;10.45;;;6.93;;
11614;SDS011;5863;52.832;4.758;2023-09-12T09:18:49;10.98;;;6.97;;
11614;SDS011;5863;52.832;4.758;2023-09-12T09:21:21;9.40;;;6.70;;
11614;SDS011;5863;52.832;4.758;2023-09-12T09:23:49;12.73;;;6.93;;
11614;SDS011;5863;52.832;4.758;2023-09-12T09:26:16;10.68;;;6.70;;
11614;SDS011;5863;52.832;4.758;2023-09-12T09:28:44;8.70;;;6.88;;
11614;SDS011;5863;52.832;4.758;2023-09-12T09:31:11;9.63;;;6.95;;
11614;SDS011;5863;52.832;4.758;2023-09-12T09:33:39;8.23;;;6.78;;
11614;SDS011;5863;52.832;4.758;2023-09-12T09:36:10;10.13;;;7.07;;
11614;SDS011;5863;52.832;4.758;2023-09-12T09:38:37;8.57;;;6.95;;
11614;SDS011;5863;52.832;4.758;2023-09-12T09:41:04;10.40;;;6.82;;
11614;SDS011;5863;52.832;4.758;2023-09-12T09:43:32;11.10;;;7.38;;
11614;SDS011;5863;52.832;4.758;2023-09-12T09:46:00;8.90;;;6.60;;
11614;SDS011;5863;52.832;4.758;2023-09-12T09:48:27;10.35;;;6.70;;
11614;SDS011;5863;52.832;4.758;2023-09-12T09:50:59;8.60;;;6.63;;
11614;SDS011;5863;52.832;4.758;2023-09-12T09:53:28;7.82;;;6.15;;
11614;SDS011;5863;52.832;4.758;2023-09-12T09:56:09;9.07;;;6.90;;
11614;SDS011;5863;52.832;4.758;2023-09-12T09:58:41;8.88;;;7.93;;
11614;SDS011;5863;52.832;4.758;2023-09-12T10:01:14;8.05;;;7.13;;
11614;SDS011;5863;52.832;4.758;2023-09-12T10:03:45;9.25;;;6.47;;
11614;SDS011;5863;52.832;4.758;2023-09-12T10:06:14;8.70;;;6.88;;
11614;SDS011;5863;52.832;4.758;2023-09-12T10:08:41;9.93;;;7.40;;
11614;SDS011;5863;52.832;4.758;2023-09-12T10:11:09;11.05;;;7.07;;
11614;SDS011;5863;52.832;4.758;2023-09-12T10:13:36;10.07;;;7.22;;
11614;SDS011;5863;52.832;4.758;2023-09-12T10:16:07;7.93;;;6.85;;
11614;SDS011;5863;52.832;4.758;2023-09-12T10:18:43;8.73;;;7.00;;
11614;SDS011;5863;52.832;4.758;2023-09-12T10:21:28;7.97;;;7.18;;
11614;SDS011;5863;52.832;4.758;2023-09-12T10:23:58;8.38;;;7.35;;
11614;SDS011;5863;52.832;4.758;2023-09-12T10:26:26;10.57;;;7.25;;
11614;SDS011;5863;52.832;4.758;2023-09-12T10:28:53;9.88;;;6.80;;
11614;SDS011;5863;52.832;4.758;2023-09-12T10:31:21;9.35;;;7.40;;
11614;SDS011;5863;52.832;4.758;2023-09-12T10:33:51;9.98;;;6.57;;
11614;SDS011;5863;52.832;4.758;2023-09-12T10:36:19;9.90;;;6.57;;
11614;SDS011;5863;52.832;4.758;2023-09-12T10:38:48;6.85;;;6.18;;
11614;SDS011;5863;52.832;4.758;2023-09-12T10:41:15;8.65;;;6.50;;
11614;SDS011;5863;52.832;4.758;2023-09-12T10:43:43;9.68;;;6.18;;
11614;SDS011;5863;52.832;4.758;2023-09-12T10:46:14;7.30;;;6.28;;
11614;SDS011;5863;52.832;4.758;2023-09-12T10:48:41;8.63;;;6.90;;
11614;SDS011;5863;52.832;4.758;2023-09-12T10:51:10;8.18;;;6.90;;
11614;SDS011;5863;52.832;4.758;2023-09-12T10:53:38;8.43;;;7.05;;
11614;SDS011;5863;52.832;4.758;2023-09-12T10:56:15;7.93;;;6.20;;
11614;SDS011;5863;52.832;4.758;2023-09-12T11:01:36;6.88;;;5.95;;
11614;SDS011;5863;52.832;4.758;2023-09-12T11:04:06;6.60;;;5.70;;
11614;SDS011;5863;52.832;4.758;2023-09-12T11:07:01;8.57;;;5.40;;
11614;SDS011;5863;52.832;4.758;2023-09-12T11:09:48;6.95;;;5.50;;
11614;SDS011;5863;52.832;4.758;2023-09-12T11:12:45;9.18;;;5.60;;
11614;SDS011;5863;52.832;4.758;2023-09-12T11:15:12;6.65;;;4.80;;
11614;SDS011;5863;52.832;4.758;2023-09-12T11:17:40;8.00;;;5.55;;
11614;SDS011;5863;52.832;4.758;2023-09-12T11:20:08;7.32;;;5.30;;
11614;SDS011;5863;52.832;4.758;2023-09-12T11:22:37;6.10;;;4.78;;
11614;SDS011;5863;52.832;4.758;2023-09-12T11:25:15;6.45;;;4.90;;
11614;SDS011;5863;52.832;4.758;2023-09-12T11:27:46;6.63;;;5.40;;
11614;SDS011;5863;52.832;4.758;2023-09-12T11:30:28;6.03;;;4.90;;
11614;SDS011;5863;52.832;4.758;2023-09-12T11:32:56;6.35;;;5.25;;
11614;SDS011;5863;52.832;4.758;2023-09-12T11:35:24;5.85;;;5.15;;
11614;SDS011;5863;52.832;4.758;2023-09-12T11:37:53;7.80;;;5.50;;
11614;SDS011;5863;52.832;4.758;2023-09-12T11:40:23;8.43;;;5.07;;
11614;SDS011;5863;52.832;4.758;2023-09-12T11:42:51;9.88;;;6.00;;
11614;SDS011;5863;52.832;4.758;2023-09-12T11:45:18;5.40;;;4.90;;
11614;SDS011;5863;52.832;4.758;2023-09-12T11:47:46;7.65;;;5.32;;
11614;SDS011;5863;52.832;4.758;2023-09-12T11:50:26;7.15;;;5.63;;
11614;SDS011;5863;52.832;4.758;2023-09-12T11:53:00;7.45;;;5.75;;
11614;SDS011;5863;52.832;4.758;2023-09-12T11:55:30;8.85;;;5.28;;
11614;SDS011;5863;52.832;4.758;2023-09-12T11:57:57;7.65;;;5.60;;
11614;SDS011;5863;52.832;4.758;2023-09-12T12:00:24;7.78;;;6.00;;
11614;SDS011;5863;52.832;4.758;2023-09-12T12:02:52;7.72;;;6.32;;
11614;SDS011;5863;52.832;4.758;2023-09-12T12:05:19;8.43;;;6.85;;
11614;SDS011;5863;52.832;4.758;2023-09-12T12:07:46;8.57;;;6.30;;
11614;SDS011;5863;52.832;4.758;2023-09-12T12:10:15;7.43;;;6.00;;
11614;SDS011;5863;52.832;4.758;2023-09-12T12:12:43;7.93;;;5.72;;
11614;SDS011;5863;52.832;4.758;2023-09-12T12:15:11;6.43;;;5.43;;
11614;SDS011;5863;52.832;4.758;2023-09-12T12:17:40;8.82;;;5.40;;
11614;SDS011;5863;52.832;4.758;2023-09-12T12:20:07;8.00;;;5.25;;
11614;SDS011;5863;52.832;4.758;2023-09-12T12:22:36;6.10;;;5.28;;
11614;SDS011;5863;52.832;4.758;2023-09-12T12:25:06;5.35;;;4.82;;
11614;SDS011;5863;52.832;4.758;2023-09-12T12:27:36;6.97;;;4.90;;
11614;SDS011;5863;52.832;4.758;2023-09-12T12:30:04;5.50;;;4.40;;
11614;SDS011;5863;52.832;4.758;2023-09-12T12:32:33;4.82;;;3.92;;
11614;SDS011;5863;52.832;4.758;2023-09-12T12:34:59;5.28;;;4.60;;
11614;SDS011;5863;52.832;4.758;2023-09-12T12:37:28;6.82;;;4.57;;
11614;SDS011;5863;52.832;4.758;2023-09-12T12:39:56;5.50;;;5.00;;
11614;SDS011;5863;52.832;4.758;2023-09-12T12:42:23;6.03;;;4.63;;
11614;SDS011;5863;52.832;4.758;2023-09-12T12:44:53;5.65;;;4.47;;
11614;SDS011;5863;52.832;4.758;2023-09-12T12:47:21;6.18;;;5.00;;
11614;SDS011;5863;52.832;4.758;2023-09-12T12:49:50;5.85;;;4.90;;
11614;SDS011;5863;52.832;4.758;2023-09-12T12:52:17;6.53;;;5.78;;
11614;SDS011;5863;52.832;4.758;2023-09-12T12:54:48;6.35;;;4.93;;
11614;SDS011;5863;52.832;4.758;2023-09-12T12:57:18;6.50;;;5.00;;
11614;SDS011;5863;52.832;4.758;2023-09-12T12:59:45;9.00;;;5.65;;
11614;SDS011;5863;52.832;4.758;2023-09-12T13:02:13;7.28;;;5.20;;
11614;SDS011;5863;52.832;4.758;2023-09-12T13:04:40;8.80;;;5.53;;
11614;SDS011;5863;52.832;4.758;2023-09-12T13:07:07;6.80;;;5.35;;
11614;SDS011;5863;52.832;4.758;2023-09-12T13:09:33;6.30;;;4.80;;
11614;SDS011;5863;52.832;4.758;2023-09-12T13:12:01;9.82;;;5.25;;
11614;SDS011;5863;52.832;4.758;2023-09-12T13:14:27;6.22;;;4.70;;
11614;SDS011;5863;52.832;4.758;2023-09-12T13:16:56;8.07;;;4.95;;
11614;SDS011;5863;52.832;4.758;2023-09-12T13:19:24;7.03;;;5.60;;
11614;SDS011;5863;52.832;4.758;2023-09-12T13:21:51;4.88;;;4.18;;
11614;SDS011;5863;52.832;4.758;2023-09-12T13:24:18;6.35;;;4.22;;
11614;SDS011;5863;52.832;4.758;2023-09-12T13:26:45;4.80;;;4.22;;
11614;SDS011;5863;52.832;4.758;2023-09-12T13:29:12;8.95;;;4.80;;
11614;SDS011;5863;52.832;4.758;2023-09-12T13:31:38;5.40;;;4.22;;
11614;SDS011;5863;52.832;4.758;2023-09-12T13:34:05;7.10;;;4.25;;
11614;SDS011;5863;52.832;4.758;2023-09-12T13:36:33;8.00;;;4.85;;
11614;SDS011;5863;52.832;4.758;2023-09-12T13:39:00;7.20;;;4.70;;
11614;SDS011;5863;52.832;4.758;2023-09-12T13:41:27;5.40;;;4.43;;
11614;SDS011;5863;52.832;4.758;2023-09-12T13:43:54;5.45;;;4.20;;
11614;SDS011;5863;52.832;4.758;2023-09-12T13:46:21;5.88;;;3.88;;
11614;SDS011;5863;52.832;4.758;2023-09-12T13:48:47;7.70;;;3.70;;
11614;SDS011;5863;52.832;4.758;2023-09-12T13:51:14;6.40;;;3.70;;
11614;SDS011;5863;52.832;4.758;2023-09-12T13:53:42;6.78;;;3.60;;
11614;SDS011;5863;52.832;4.758;2023-09-12T13:56:08;3.75;;;3.15;;
11614;SDS011;5863;52.832;4.758;2023-09-12T13:58:35;6.70;;;3.75;;
11614;SDS011;5863;52.832;4.758;2023-09-12T14:01:02;4.97;;;3.28;;
11614;SDS011;5863;52.832;4.758;2023-09-12T14:03:29;3.92;;;3.42;;
11614;SDS011;5863;52.832;4.758;2023-09-12T14:05:56;5.72;;;3.50;;
11614;SDS011;5863;52.832;4.758;2023-09-12T14:08:22;3.80;;;3.40;;
11614;SDS011;5863;52.832;4.758;2023-09-12T14:10:50;4.75;;;3.60;;
11614;SDS011;5863;52.832;4.758;2023-09-12T14:13:17;6.50;;;3.70;;
11614;SDS011;5863;52.832;4.758;2023-09-12T14:15:44;4.53;;;3.20;;
11614;SDS011;5863;52.832;4.758;2023-09-12T14:18:11;7.57;;;3.58;;
11614;SDS011;5863;52.832;4.758;2023-09-12T14:20:38;3.90;;;2.97;;
11614;SDS011;5863;52.832;4.758;2023-09-12T14:23:06;7.43;;;3.70;;
11614;SDS011;5863;52.832;4.758;2023-09-12T14:25:33;4.85;;;3.55;;
11614;SDS011;5863;52.832;4.758;2023-09-12T14:28:01;3.80;;;3.10;;
11614;SDS011;5863;52.832;4.758;2023-09-12T14:30:29;5.53;;;3.45;;
11614;SDS011;5863;52.832;4.758;2023-09-12T14:33:00;5.22;;;3.22;;
11614;SDS011;5863;52.832;4.758;2023-09-12T14:35:27;5.20;;;3.42;;
11614;SDS011;5863;52.832;4.758;2023-09-12T14:37:54;5.57;;;3.13;;
11614;SDS011;5863;52.832;4.758;2023-09-12T14:40:26;3.67;;;2.70;;
11614;SDS011;5863;52.832;4.758;2023-09-12T14:42:53;5.60;;;2.92;;
11614;SDS011;5863;52.832;4.758;2023-09-12T14:45:21;10.77;;;3.28;;
11614;SDS011;5863;52.832;4.758;2023-09-12T14:47:50;5.78;;;2.97;;
11614;SDS011;5863;52.832;4.758;2023-09-12T14:50:20;5.30;;;2.92;;
11614;SDS011;5863;52.832;4.758;2023-09-12T14:52:48;5.93;;;2.90;;